createdAt,value
2022-08-02T00:01:25.114Z,96201.19
2022-08-02T00:06:28.056Z,96192.75
2022-08-02T00:11:30.850Z,96202.31
2022-08-02T00:16:37.979Z,96196.41
2022-08-02T00:21:41.378Z,96205.41
2022-08-02T00:26:44.190Z,96211.53
2022-08-02T00:31:48.389Z,96206.69
2022-08-02T00:36:52.047Z,96209.00
2022-08-02T00:41:55.060Z,96218.38
2022-08-02T00:46:59.256Z,96212.06
2022-08-02T00:52:02.331Z,96213.25
2022-08-02T00:57:05.215Z,96205.97
2022-08-02T01:02:10.202Z,96210.88
2022-08-02T01:07:14.438Z,96212.88
2022-08-02T01:12:17.733Z,96216.38
2022-08-02T01:17:31.411Z,96215.34
2022-08-02T01:23:01.682Z,96210.41
2022-08-02T01:28:29.485Z,96215.94
2022-08-02T01:33:40.526Z,96223.06
2022-08-02T01:38:47.424Z,96219.19
2022-08-02T01:43:54.949Z,96225.94
2022-08-02T01:49:00.641Z,96218.59
2022-08-02T01:54:04.016Z,96227.97
2022-08-02T01:59:12.064Z,96214.91
2022-08-02T02:04:16.990Z,96219.19
2022-08-02T02:09:21.661Z,96222.63
2022-08-02T02:14:26.284Z,96214.31
2022-08-02T02:19:30.231Z,96205.53
2022-08-02T02:24:33.319Z,96193.50
2022-08-02T02:29:44.428Z,96201.03
2022-08-02T02:34:52.154Z,96201.59
2022-08-02T02:39:58.035Z,96188.31
2022-08-02T02:45:04.251Z,96194.41
2022-08-02T02:50:08.454Z,96200.31
2022-08-02T02:55:12.170Z,96196.19
2022-08-02T03:00:16.649Z,96194.34
2022-08-02T03:05:19.478Z,96213.34
2022-08-02T03:10:22.487Z,96208.34
2022-08-02T03:15:28.649Z,96211.78
2022-08-02T03:20:31.478Z,96207.78
2022-08-02T03:25:34.534Z,96210.63
2022-08-02T03:30:38.713Z,96209.38
2022-08-02T03:35:43.902Z,96211.63
2022-08-02T03:40:47.654Z,96210.00
2022-08-02T03:45:52.995Z,96210.00
2022-08-02T03:50:57.238Z,96206.75
2022-08-02T03:56:00.526Z,96208.56
2022-08-02T04:01:05.021Z,96196.97
2022-08-02T04:06:07.935Z,96195.75
2022-08-02T04:11:28.519Z,96197.16
2022-08-02T04:16:42.196Z,96201.03
2022-08-02T04:21:49.965Z,96205.09
2022-08-02T04:26:57.861Z,96204.59
2022-08-02T04:32:08.934Z,96206.09
2022-08-02T04:37:14.089Z,96205.66
2022-08-02T04:42:22.018Z,96206.53
2022-08-02T04:48:01.491Z,96206.16
2022-08-02T04:52:49.395Z,96207.81
2022-08-02T04:57:58.186Z,96216.63
2022-08-02T05:03:02.827Z,96219.13
2022-08-02T05:08:06.064Z,96227.09
2022-08-02T05:13:08.845Z,96224.88
2022-08-02T05:18:13.016Z,96223.84
2022-08-02T05:23:16.140Z,96229.34
2022-08-02T05:28:19.092Z,96233.47
2022-08-02T05:33:25.084Z,96237.19
2022-08-02T05:38:31.117Z,96241.72
2022-08-02T05:43:34.761Z,96237.75
2022-08-02T05:48:38.946Z,96243.50
2022-08-02T05:53:47.673Z,96243.97
2022-08-02T05:58:54.215Z,96237.53
2022-08-02T06:04:01.251Z,96238.78
2022-08-02T06:09:06.762Z,96237.53
2022-08-02T06:14:09.709Z,96236.94
2022-08-02T06:19:14.452Z,96238.59
2022-08-02T06:24:19.707Z,96230.81
2022-08-02T06:29:23.262Z,96232.47
2022-08-02T06:34:27.639Z,96232.03
2022-08-02T06:39:36.913Z,96231.34
2022-08-02T06:44:48.101Z,96219.94
2022-08-02T06:49:56.368Z,96228.69
2022-08-02T06:55:00.547Z,96214.19
2022-08-02T07:00:09.195Z,96206.16
2022-08-02T07:05:13.506Z,96213.63
2022-08-02T07:10:16.396Z,96220.75
2022-08-02T07:15:19.298Z,96220.47
2022-08-02T07:20:23.544Z,96217.28
2022-08-02T07:25:26.420Z,96211.94
2022-08-02T07:30:49.189Z,96223.44
2022-08-02T07:35:53.894Z,96215.41
2022-08-02T07:40:57.578Z,96212.03
2022-08-02T07:46:00.676Z,96213.53
2022-08-02T07:51:05.422Z,96206.09
2022-08-02T07:56:08.195Z,96196.56
2022-08-02T08:01:11.171Z,96193.91
2022-08-02T08:06:15.949Z,96184.28
2022-08-02T08:11:19.161Z,96178.75
2022-08-02T08:16:22.183Z,96169.47
2022-08-02T08:21:26.378Z,96172.16
2022-08-02T08:26:29.074Z,96173.59
2022-08-02T08:31:31.897Z,96163.66
2022-08-02T08:36:36.094Z,96173.22
2022-08-02T08:41:38.667Z,96167.09
2022-08-02T08:46:44.014Z,96162.59
2022-08-02T08:51:48.224Z,96161.78
2022-08-02T08:56:52.675Z,96163.16
2022-08-02T09:01:56.982Z,96167.66
2022-08-02T09:07:01.203Z,96168.13
2022-08-02T09:12:15.357Z,96163.50
2022-08-02T09:17:21.412Z,96165.19
2022-08-02T09:22:26.150Z,96164.09
2022-08-02T09:27:36.541Z,96171.41
2022-08-02T09:32:46.499Z,96170.88
2022-08-02T09:37:50.751Z,96177.56
2022-08-02T09:42:59.903Z,96164.09
2022-08-02T09:48:03.378Z,96164.75
2022-08-02T09:53:12.885Z,96160.75
2022-08-02T09:58:19.735Z,96153.22
2022-08-02T10:03:24.499Z,96148.38
2022-08-02T10:08:36.197Z,96166.19
2022-08-02T10:13:39.285Z,96147.44
2022-08-02T10:18:42.346Z,96141.78
2022-08-02T10:23:49.930Z,96142.56
2022-08-02T10:28:54.975Z,96133.00
2022-08-02T10:34:01.127Z,96127.81
2022-08-02T10:39:06.297Z,96126.75
2022-08-02T10:44:24.893Z,96116.97
2022-08-02T10:49:39.685Z,96115.75
2022-08-02T10:54:49.018Z,96110.59
2022-08-02T10:59:53.811Z,96109.59
2022-08-02T11:05:06.562Z,96104.28
2022-08-02T11:10:31.126Z,96100.31
2022-08-02T11:15:50.562Z,96092.16
2022-08-02T11:21:24.703Z,96082.63
2022-08-02T11:26:47.069Z,96081.53
2022-08-02T11:31:49.950Z,96081.78
2022-08-02T11:36:54.174Z,96073.13
2022-08-02T11:42:00.394Z,96070.47
2022-08-02T11:47:04.545Z,96062.81
2022-08-02T11:52:11.074Z,96056.69
2022-08-02T11:57:20.304Z,96059.25
2022-08-02T12:02:27.082Z,96058.31
2022-08-02T12:07:35.323Z,96057.53
2022-08-02T12:12:50.642Z,96057.31
2022-08-02T12:18:12.001Z,96056.28
2022-08-02T12:23:15.302Z,96042.88
2022-08-02T12:28:22.457Z,96043.91
2022-08-02T12:33:28.983Z,96044.75
2022-08-02T12:38:31.809Z,96048.50
2022-08-02T12:43:44.528Z,96039.09
2022-08-02T12:49:02.655Z,96034.00
2022-08-02T12:54:17.688Z,96022.91
2022-08-02T12:59:38.903Z,96029.81
2022-08-02T13:04:50.272Z,96028.19
2022-08-02T13:10:00.392Z,96032.44
2022-08-02T13:15:12.671Z,96019.91
2022-08-02T13:20:31.924Z,96014.97
2022-08-02T13:25:34.784Z,96015.16
2022-08-02T13:30:39.593Z,96002.97
2022-08-02T13:35:43.172Z,96002.19
2022-08-02T13:41:04.622Z,96005.19
2022-08-02T13:46:09.252Z,96003.81
2022-08-02T13:51:14.872Z,95996.22
2022-08-02T13:56:17.843Z,95982.88
2022-08-02T14:01:22.097Z,95987.97
2022-08-02T14:06:25.355Z,95980.72
2022-08-02T14:11:28.158Z,95975.94
2022-08-02T14:16:33.203Z,95974.63
2022-08-02T14:21:46.445Z,95970.66
2022-08-02T14:26:51.305Z,95963.06
2022-08-02T14:31:55.525Z,95973.56
2022-08-02T14:36:58.424Z,95973.28
2022-08-02T14:42:01.276Z,95969.00
2022-08-02T14:47:05.986Z,95967.38
2022-08-02T14:52:08.857Z,95970.59
2022-08-02T14:57:12.239Z,95964.34
2022-08-02T15:02:16.683Z,95971.09
2022-08-02T15:07:19.814Z,95981.59
2022-08-02T15:12:22.637Z,95974.53
2022-08-02T15:17:26.868Z,95975.84
2022-08-02T15:22:29.735Z,95975.13
2022-08-02T15:27:33.909Z,95976.16
2022-08-02T15:32:41.631Z,95972.56
2022-08-02T15:37:56.605Z,95968.16
2022-08-02T15:42:59.827Z,95964.44
2022-08-02T15:48:04.214Z,95962.84
2022-08-02T15:53:07.097Z,95966.22
2022-08-02T15:58:16.818Z,95964.19
2022-08-02T16:03:22.399Z,95959.03
2022-08-02T16:08:26.447Z,95951.63
2022-08-02T16:13:52.971Z,95944.25
2022-08-02T16:18:58.838Z,95954.81
2022-08-02T16:24:03.367Z,95946.06
2022-08-02T16:29:06.422Z,95940.84
2022-08-02T16:34:10.623Z,95945.88
2022-08-02T16:39:13.550Z,95936.81
2022-08-02T16:50:04.902Z,95944.38
2022-08-02T16:55:09.982Z,95937.63
2022-08-02T17:00:15.688Z,95941.53
2022-08-02T17:05:21.170Z,95938.78
2022-08-02T17:10:24.055Z,95935.97
2022-08-02T17:16:01.122Z,95936.19
2022-08-02T17:20:51.153Z,95940.19
2022-08-02T17:25:54.003Z,95932.53
2022-08-02T17:30:58.686Z,95930.41
2022-08-02T17:36:02.958Z,95931.19
2022-08-02T17:41:06.239Z,95932.53
2022-08-02T17:46:17.971Z,95940.91
2022-08-02T17:51:33.266Z,95944.81
2022-08-02T17:56:45.540Z,95949.03
2022-08-02T18:01:52.965Z,95949.44
2022-08-02T18:07:03.880Z,95945.69
2022-08-02T18:12:07.436Z,95957.91
2022-08-02T18:17:10.214Z,95945.09
2022-08-02T18:22:15.094Z,95946.03
2022-08-02T18:27:18.502Z,95951.31
2022-08-02T18:32:37.809Z,95938.97
2022-08-02T18:37:56.706Z,95937.19
2022-08-02T18:42:59.915Z,95950.59
2022-08-02T18:48:07.821Z,95948.97
2022-08-02T18:53:12.086Z,95923.88
2022-08-02T18:58:20.240Z,95933.97
2022-08-02T19:03:23.914Z,95946.72
2022-08-02T19:08:27.939Z,95944.34
2022-08-02T19:13:30.594Z,95935.50
2022-08-02T19:18:33.387Z,95932.34
2022-08-02T19:23:54.590Z,95942.28
2022-08-02T19:28:57.739Z,95945.56
2022-08-02T19:34:06.063Z,95955.47
2022-08-02T19:39:16.898Z,95962.22
2022-08-02T19:44:27.115Z,95967.06
2022-08-02T19:49:39.984Z,95966.00
2022-08-02T19:54:55.847Z,95954.38
2022-08-02T20:00:00.162Z,95977.97
2022-08-02T20:05:08.307Z,95978.47
2022-08-02T20:10:24.621Z,95974.84
2022-08-02T20:15:55.764Z,95985.75
2022-08-02T20:20:51.429Z,95993.63
2022-08-02T20:25:55.962Z,95991.00
2022-08-02T20:30:58.908Z,95989.72
2022-08-02T20:36:12.060Z,95989.03
2022-08-02T20:41:21.440Z,96000.19
2022-08-02T20:46:24.787Z,95997.91
2022-08-02T20:51:33.421Z,95987.09
2022-08-02T20:56:38.599Z,95996.69
2022-08-02T21:01:41.705Z,96002.53
2022-08-02T21:07:00.437Z,95998.13
2022-08-02T21:12:05.150Z,95991.78
2022-08-02T21:17:08.737Z,95992.75
2022-08-02T21:22:12.534Z,96004.81
2022-08-02T21:27:52.706Z,96001.69
2022-08-02T21:32:39.417Z,96002.47
2022-08-02T21:37:44.743Z,95990.41
2022-08-02T21:42:49.339Z,96004.56
2022-08-02T21:47:52.141Z,96006.97
2022-08-02T21:52:54.961Z,96005.34
2022-08-02T21:57:59.154Z,96009.13
2022-08-02T22:03:22.287Z,96005.78
2022-08-02T22:08:24.965Z,95997.59
2022-08-02T22:13:38.697Z,96015.31
2022-08-02T22:18:52.635Z,96021.13
2022-08-02T22:23:55.620Z,96019.75
2022-08-02T22:29:00.202Z,96017.66
2022-08-02T22:39:33.548Z,96033.41
2022-08-02T22:44:37.733Z,96039.34
2022-08-02T22:49:51.955Z,96035.06
2022-08-02T22:54:58.766Z,96032.78
2022-08-02T22:58:48.779Z,95942.28
2022-08-02T23:00:07.132Z,96037.28
2022-08-02T23:05:10.399Z,96042.97
2022-08-02T23:10:13.323Z,96019.78
2022-08-02T23:15:17.546Z,96040.06
2022-08-02T23:20:20.152Z,96044.22
2022-08-02T23:25:23.111Z,96035.75
2022-08-02T23:30:28.318Z,96042.34
2022-08-02T23:35:31.302Z,96036.44
2022-08-02T23:40:40.375Z,96037.81
2022-08-02T23:45:47.515Z,96035.38
2022-08-02T23:50:50.403Z,96042.47
2022-08-02T23:55:53.300Z,96040.94
